Time;durP1;ratioP1;P1;durP2;ratioP2;P2;SDS_P1;SDS_P2;PMS_P1;PMS_P2;Temp;Humidity;BMP_temperature;BMP_pressure;BME280_temperature;BME280_humidity;BME280_pressure;Samples;Min_cycle;Max_cycle;Signal;HPM_P1;HPM_P2
2022/03/05 00:00:00;;;;;;;30.30;13.60;;;;;;;;;;5013174;28;20030;-71
2022/03/05 00:02:26;;;;;;;29.45;14.57;;;;;;;;;;5014087;28;20031;-71
2022/03/05 00:04:51;;;;;;;27.48;14.52;;;;;;;;;;5011352;28;20041;-71
2022/03/05 00:07:19;;;;;;;31.17;14.13;;;;;;;;;;5012678;28;20579;-71
2022/03/05 00:09:45;;;;;;;27.92;13.65;;;;;;;;;;5012686;28;20061;-71
2022/03/05 00:12:10;;;;;;;29.85;14.88;;;;;;;;;;5012902;28;20454;-71
2022/03/05 00:14:36;;;;;;;40.85;15.95;;;;;;;;;;5012836;28;20037;-71
2022/03/05 00:17:01;;;;;;;32.10;14.40;;;;;;;;;;5012859;28;20125;-71
2022/03/05 00:19:26;;;;;;;28.95;14.18;;;;;;;;;;5012107;28;20104;-71
2022/03/05 00:21:54;;;;;;;37.85;16.77;;;;;;;;;;5012471;28;20057;-71
2022/03/05 00:24:19;;;;;;;53.78;17.73;;;;;;;;;;5012592;28;20025;-71
2022/03/05 00:26:44;;;;;;;36.67;14.75;;;;;;;;;;5012612;28;20033;-71
2022/03/05 00:29:10;;;;;;;38.17;15.10;;;;;;;;;;5012171;28;20053;-71
2022/03/05 00:31:35;;;;;;;35.97;13.48;;;;;;;;;;5012642;28;20036;-72
2022/03/05 00:34:01;;;;;;;40.80;15.98;;;;;;;;;;5011832;28;20030;-71
2022/03/05 00:36:27;;;;;;;42.08;15.73;;;;;;;;;;5012304;28;20410;-72
2022/03/05 00:38:52;;;;;;;44.08;15.93;;;;;;;;;;5011863;28;20038;-72
2022/03/05 00:41:17;;;;;;;34.08;14.43;;;;;;;;;;5012455;28;20397;-72
2022/03/05 00:43:43;;;;;;;35.20;14.95;;;;;;;;;;5012396;28;20479;-72
2022/03/05 00:46:08;;;;;;;38.17;14.98;;;;;;;;;;5012070;28;20510;-72
2022/03/05 00:48:34;;;;;;;36.72;15.23;;;;;;;;;;5011866;28;20030;-71
2022/03/05 00:50:59;;;;;;;30.70;13.95;;;;;;;;;;5012278;28;20030;-72
2022/03/05 00:53:24;;;;;;;27.88;12.82;;;;;;;;;;5011822;28;20026;-72
2022/03/05 00:55:49;;;;;;;26.67;12.30;;;;;;;;;;5012282;28;20029;-72
2022/03/05 00:58:15;;;;;;;27.00;13.00;;;;;;;;;;5012111;28;20030;-72
2022/03/05 01:00:41;;;;;;;31.05;13.40;;;;;;;;;;5011339;28;20109;-72
2022/03/05 01:03:07;;;;;;;28.50;13.32;;;;;;;;;;5011939;28;20028;-72
2022/03/05 01:05:32;;;;;;;28.85;13.02;;;;;;;;;;5011786;28;20025;-73
2022/03/05 01:07:57;;;;;;;28.95;13.55;;;;;;;;;;5011296;28;20403;-71
2022/03/05 01:10:23;;;;;;;27.02;13.00;;;;;;;;;;5011883;28;20479;-72
2022/03/05 01:12:48;;;;;;;27.48;12.85;;;;;;;;;;5012001;28;20022;-72
2022/03/05 01:15:14;;;;;;;28.08;13.20;;;;;;;;;;5011502;28;20472;-73
2022/03/05 01:17:40;;;;;;;29.02;13.30;;;;;;;;;;5011416;28;20038;-72
2022/03/05 01:20:07;;;;;;;26.48;12.07;;;;;;;;;;5011020;28;20033;-72
2022/03/05 01:22:32;;;;;;;29.48;12.48;;;;;;;;;;5011314;28;20029;-72
2022/03/05 01:24:58;;;;;;;29.80;13.23;;;;;;;;;;5011297;28;20037;-72
2022/03/05 01:27:23;;;;;;;23.88;11.75;;;;;;;;;;5011132;28;20030;-71
2022/03/05 01:29:49;;;;;;;24.27;11.90;;;;;;;;;;5011006;28;20053;-72
2022/03/05 01:32:15;;;;;;;23.40;10.82;;;;;;;;;;5011240;28;20285;-72
2022/03/05 01:34:40;;;;;;;26.27;11.70;;;;;;;;;;5011186;28;20054;-72
2022/03/05 01:37:06;;;;;;;24.15;11.77;;;;;;;;;;5011244;28;20527;-72
2022/03/05 01:39:31;;;;;;;23.77;11.75;;;;;;;;;;5011099;28;20030;-72
2022/03/05 01:41:56;;;;;;;21.08;10.68;;;;;;;;;;5011242;28;20399;-73
2022/03/05 01:44:24;;;;;;;24.98;11.43;;;;;;;;;;5011029;28;20018;-72
2022/03/05 01:46:49;;;;;;;25.40;11.60;;;;;;;;;;5010707;28;20113;-73
2022/03/05 01:49:15;;;;;;;21.80;10.85;;;;;;;;;;5011209;28;20520;-73
2022/03/05 01:51:41;;;;;;;24.20;10.77;;;;;;;;;;5011130;28;20028;-73
2022/03/05 01:54:08;;;;;;;25.27;11.68;;;;;;;;;;5011184;28;20022;-73
2022/03/05 01:56:34;;;;;;;24.77;11.45;;;;;;;;;;5009401;28;20115;-72
2022/03/05 01:59:01;;;;;;;25.90;11.85;;;;;;;;;;5010323;28;20029;-73
2022/03/05 02:01:27;;;;;;;25.08;11.93;;;;;;;;;;5010851;28;20025;-72
2022/03/05 02:03:54;;;;;;;25.45;11.25;;;;;;;;;;5010741;28;20029;-72
2022/03/05 02:06:20;;;;;;;24.88;11.05;;;;;;;;;;5010363;28;20036;-73
2022/03/05 02:08:46;;;;;;;23.70;11.95;;;;;;;;;;5010826;28;20048;-73
2022/03/05 02:11:11;;;;;;;24.10;11.75;;;;;;;;;;5010300;28;20101;-73
2022/03/05 02:13:37;;;;;;;29.02;12.18;;;;;;;;;;5010804;28;20029;-72
2022/03/05 02:16:03;;;;;;;24.52;11.75;;;;;;;;;;5010326;28;20037;-73
2022/03/05 02:18:28;;;;;;;26.83;12.40;;;;;;;;;;5010305;28;20662;-73
2022/03/05 02:20:54;;;;;;;24.15;11.73;;;;;;;;;;5010616;28;20068;-72
2022/03/05 02:23:20;;;;;;;24.42;11.60;;;;;;;;;;5010532;28;20037;-72
2022/03/05 02:25:55;;;;;;;26.70;12.43;;;;;;;;;;5010202;28;20037;-72
2022/03/05 02:28:22;;;;;;;26.25;12.15;;;;;;;;;;5010090;28;20040;-72
2022/03/05 02:30:47;;;;;;;33.60;13.75;;;;;;;;;;5010439;28;20547;-73
2022/03/05 02:33:14;;;;;;;27.52;12.80;;;;;;;;;;5009043;28;20122;-73
2022/03/05 02:35:39;;;;;;;26.23;12.70;;;;;;;;;;5010076;28;20034;-72
2022/03/05 02:38:05;;;;;;;27.75;12.90;;;;;;;;;;5010315;28;20545;-72
2022/03/05 02:40:30;;;;;;;26.50;11.82;;;;;;;;;;5010126;28;20545;-72
2022/03/05 02:42:55;;;;;;;26.23;11.90;;;;;;;;;;5010399;28;20034;-73
2022/03/05 02:45:21;;;;;;;29.50;12.15;;;;;;;;;;5010695;28;20030;-72
2022/03/05 02:47:46;;;;;;;24.38;11.90;;;;;;;;;;5010197;28;20022;-72
2022/03/05 02:50:11;;;;;;;25.88;11.82;;;;;;;;;;5010324;28;20056;-71
2022/03/05 02:52:39;;;;;;;26.15;12.00;;;;;;;;;;5010165;28;20296;-72
2022/03/05 02:55:05;;;;;;;23.67;11.85;;;;;;;;;;5009923;28;20030;-72
2022/03/05 02:57:30;;;;;;;25.85;12.18;;;;;;;;;;5010520;28;20472;-72
2022/03/05 02:59:56;;;;;;;25.05;12.60;;;;;;;;;;5013292;28;20041;-72
2022/03/05 03:02:21;;;;;;;26.60;12.10;;;;;;;;;;5014304;28;20234;-72
2022/03/05 03:04:46;;;;;;;28.55;12.95;;;;;;;;;;5013877;28;20026;-72
2022/03/05 03:07:12;;;;;;;33.47;13.38;;;;;;;;;;5014175;28;20049;-72
2022/03/05 03:09:37;;;;;;;29.45;12.38;;;;;;;;;;5014061;28;20449;-72
2022/03/05 03:12:03;;;;;;;29.77;13.05;;;;;;;;;;5014066;28;20032;-72
2022/03/05 03:14:28;;;;;;;26.83;11.82;;;;;;;;;;5014178;28;20052;-72
2022/03/05 03:16:54;;;;;;;27.98;12.07;;;;;;;;;;5013556;28;20026;-72
2022/03/05 03:19:19;;;;;;;26.95;12.00;;;;;;;;;;5014063;28;20117;-72
2022/03/05 03:21:44;;;;;;;28.55;14.13;;;;;;;;;;5013890;28;20033;-72
2022/03/05 03:24:09;;;;;;;26.30;12.40;;;;;;;;;;5012765;28;20502;-72
2022/03/05 03:26:35;;;;;;;24.98;12.15;;;;;;;;;;5012624;28;20484;-72
2022/03/05 03:29:00;;;;;;;27.75;13.23;;;;;;;;;;5013191;28;20029;-72
2022/03/05 03:31:26;;;;;;;30.17;12.88;;;;;;;;;;5013681;28;20034;-72
2022/03/05 03:33:52;;;;;;;31.60;13.32;;;;;;;;;;5013681;28;20033;-72
2022/03/05 03:36:17;;;;;;;25.05;12.27;;;;;;;;;;5013941;28;20487;-72
2022/03/05 03:38:43;;;;;;;27.88;12.68;;;;;;;;;;5013082;28;20013;-72
2022/03/05 03:41:08;;;;;;;31.08;13.32;;;;;;;;;;5007348;28;20030;-72
2022/03/05 03:43:34;;;;;;;28.48;12.65;;;;;;;;;;5013510;28;20045;-72
2022/03/05 03:45:59;;;;;;;28.15;12.32;;;;;;;;;;5013106;28;20036;-73
2022/03/05 03:48:24;;;;;;;26.77;11.95;;;;;;;;;;5012927;28;20409;-72
2022/03/05 03:50:50;;;;;;;26.40;13.25;;;;;;;;;;5013061;28;20037;-73
2022/03/05 03:53:16;;;;;;;23.58;11.43;;;;;;;;;;5013383;28;20021;-72
2022/03/05 03:55:41;;;;;;;28.38;12.30;;;;;;;;;;5013254;28;20025;-72
2022/03/05 03:58:07;;;;;;;29.35;12.25;;;;;;;;;;5013046;28;20040;-72
2022/03/05 04:00:33;;;;;;;25.77;12.00;;;;;;;;;;5012822;28;20033;-72
2022/03/05 04:02:59;;;;;;;28.10;12.85;;;;;;;;;;5012630;28;20030;-72
2022/03/05 04:05:25;;;;;;;27.23;12.80;;;;;;;;;;5013083;28;20049;-72
2022/03/05 04:10:34;;;;;;;;;;;;;;;;;;5012829;28;20033;-72
2022/03/05 04:12:59;;;;;;;31.08;12.60;;;;;;;;;;5013236;28;19909;-72
2022/03/05 04:15:25;;;;;;;27.95;13.48;;;;;;;;;;5012430;28;20022;-72
2022/03/05 04:17:50;;;;;;;27.40;12.77;;;;;;;;;;5012874;28;20491;-72
2022/03/05 04:20:16;;;;;;;24.02;12.00;;;;;;;;;;4995403;28;20030;-73
2022/03/05 04:22:41;;;;;;;31.40;11.88;;;;;;;;;;4992266;28;20054;-73
2022/03/05 04:25:07;;;;;;;28.58;12.43;;;;;;;;;;4993193;28;20521;-73
2022/03/05 04:27:32;;;;;;;28.10;12.80;;;;;;;;;;4993002;28;20034;-72
2022/03/05 04:29:58;;;;;;;28.13;11.75;;;;;;;;;;5006385;28;20118;-73
2022/03/05 04:32:23;;;;;;;26.25;12.48;;;;;;;;;;5012618;28;20029;-73
2022/03/05 04:34:48;;;;;;;26.92;12.38;;;;;;;;;;5012739;28;20487;-73
2022/03/05 04:37:14;;;;;;;26.58;12.55;;;;;;;;;;5012724;28;20034;-73
2022/03/05 04:39:39;;;;;;;30.05;13.05;;;;;;;;;;5012205;28;20033;-73
2022/03/05 04:42:05;;;;;;;29.90;12.50;;;;;;;;;;5012558;28;20284;-73
2022/03/05 04:44:30;;;;;;;27.52;12.70;;;;;;;;;;5011573;28;20037;-73
2022/03/05 04:46:55;;;;;;;28.15;13.25;;;;;;;;;;5011951;28;20076;-73
2022/03/05 04:49:21;;;;;;;28.15;12.18;;;;;;;;;;5011782;28;20026;-73
2022/03/05 04:51:46;;;;;;;31.10;12.48;;;;;;;;;;5012463;28;20164;-73
2022/03/05 04:54:12;;;;;;;26.33;12.25;;;;;;;;;;5012141;28;20025;-73
2022/03/05 04:56:38;;;;;;;28.52;12.38;;;;;;;;;;5012096;28;20081;-73
2022/03/05 04:59:04;;;;;;;29.95;13.05;;;;;;;;;;5011474;28;20040;-73
2022/03/05 05:01:29;;;;;;;29.50;12.82;;;;;;;;;;5012172;28;20033;-73
2022/03/05 05:03:55;;;;;;;29.45;12.93;;;;;;;;;;5011930;28;20022;-73
2022/03/05 05:06:20;;;;;;;30.15;13.27;;;;;;;;;;5012201;28;20491;-73
2022/03/05 05:08:45;;;;;;;26.90;12.63;;;;;;;;;;5011551;28;20064;-73
2022/03/05 05:11:11;;;;;;;28.48;12.52;;;;;;;;;;5011920;28;20029;-73
2022/03/05 05:13:38;;;;;;;28.15;13.10;;;;;;;;;;5011312;28;20068;-73
2022/03/05 05:16:04;;;;;;;31.50;14.13;;;;;;;;;;5011818;28;20284;-73
2022/03/05 05:18:29;;;;;;;28.33;12.52;;;;;;;;;;5011168;28;20059;-73
2022/03/05 05:20:54;;;;;;;32.08;13.48;;;;;;;;;;5010876;28;20026;-73
2022/03/05 05:23:20;;;;;;;29.65;13.25;;;;;;;;;;5011483;28;20021;-72
2022/03/05 05:25:45;;;;;;;32.38;13.70;;;;;;;;;;5011642;28;20029;-73
2022/03/05 05:28:11;;;;;;;31.20;13.07;;;;;;;;;;5011152;28;20070;-73
2022/03/05 05:30:36;;;;;;;30.45;12.98;;;;;;;;;;5011496;28;20029;-73
2022/03/05 05:33:02;;;;;;;31.27;13.75;;;;;;;;;;5011869;28;20017;-73
2022/03/05 05:35:28;;;;;;;30.10;13.38;;;;;;;;;;5011415;28;20061;-73
2022/03/05 05:37:53;;;;;;;33.60;12.55;;;;;;;;;;5011326;28;20107;-73
2022/03/05 05:40:18;;;;;;;31.42;13.50;;;;;;;;;;5011060;28;20476;-73
2022/03/05 05:42:44;;;;;;;31.30;13.73;;;;;;;;;;5010843;28;20079;-73
2022/03/05 05:45:09;;;;;;;30.15;12.45;;;;;;;;;;5011091;28;20037;-73
2022/03/05 05:47:35;;;;;;;27.00;11.80;;;;;;;;;;5011410;28;20464;-73
2022/03/05 05:50:01;;;;;;;27.88;12.82;;;;;;;;;;5010478;28;20053;-73
2022/03/05 05:52:26;;;;;;;32.83;13.55;;;;;;;;;;5010583;28;20056;-73
2022/03/05 05:54:51;;;;;;;30.15;12.70;;;;;;;;;;5011003;28;20256;-73
2022/03/05 05:57:16;;;;;;;26.98;12.32;;;;;;;;;;5009635;28;20102;-73
2022/03/05 05:59:42;;;;;;;28.88;13.45;;;;;;;;;;5010417;28;20033;-73
2022/03/05 06:02:07;;;;;;;30.67;13.10;;;;;;;;;;5010997;28;20037;-73
2022/03/05 06:04:32;;;;;;;27.10;13.32;;;;;;;;;;5010314;28;20030;-72
2022/03/05 06:06:58;;;;;;;33.55;13.57;;;;;;;;;;5010655;28;20029;-72
2022/03/05 06:09:23;;;;;;;29.30;12.45;;;;;;;;;;5010305;28;20034;-73
2022/03/05 06:11:49;;;;;;;32.67;12.65;;;;;;;;;;5008690;28;20025;-73
2022/03/05 06:14:14;;;;;;;43.28;21.73;;;;;;;;;;5009120;28;20387;-73
2022/03/05 06:16:39;;;;;;;42.28;20.35;;;;;;;;;;5010335;28;20376;-73
2022/03/05 06:19:05;;;;;;;32.42;15.30;;;;;;;;;;5010527;28;20105;-73
2022/03/05 06:21:30;;;;;;;31.58;13.32;;;;;;;;;;5010658;28;20061;-73
2022/03/05 06:23:55;;;;;;;30.80;13.55;;;;;;;;;;5010473;28;20026;-72
2022/03/05 06:26:21;;;;;;;35.67;13.32;;;;;;;;;;5010524;28;20030;-72
2022/03/05 06:28:46;;;;;;;33.90;13.05;;;;;;;;;;5008607;28;20032;-73
2022/03/05 06:31:11;;;;;;;31.00;12.68;;;;;;;;;;5003065;28;20112;-73
2022/03/05 06:33:37;;;;;;;33.15;12.65;;;;;;;;;;5005615;28;20887;-73
2022/03/05 06:36:03;;;;;;;31.77;13.23;;;;;;;;;;5005130;28;20057;-73
2022/03/05 06:38:28;;;;;;;30.42;12.18;;;;;;;;;;5006090;28;20033;-73
2022/03/05 06:40:54;;;;;;;30.95;13.30;;;;;;;;;;5006734;28;20073;-72
2022/03/05 06:43:19;;;;;;;25.30;12.68;;;;;;;;;;5008309;28;20022;-73
2022/03/05 06:45:45;;;;;;;27.80;12.68;;;;;;;;;;5007607;28;20076;-72
2022/03/05 06:48:11;;;;;;;31.70;14.15;;;;;;;;;;5008033;28;20502;-73
2022/03/05 06:50:36;;;;;;;34.30;13.45;;;;;;;;;;5009278;28;20030;-73
2022/03/05 06:53:02;;;;;;;33.90;14.60;;;;;;;;;;5008822;28;20021;-73
2022/03/05 06:55:28;;;;;;;33.97;15.27;;;;;;;;;;5008810;28;20037;-73
2022/03/05 06:57:53;;;;;;;38.13;16.80;;;;;;;;;;5009947;28;20026;-73
2022/03/05 07:00:20;;;;;;;37.35;16.85;;;;;;;;;;5010363;28;20049;-73
2022/03/05 07:02:46;;;;;;;32.78;14.98;;;;;;;;;;5009929;28;20030;-74
2022/03/05 07:05:11;;;;;;;37.80;16.50;;;;;;;;;;5009745;28;20061;-74
2022/03/05 07:07:37;;;;;;;39.55;16.38;;;;;;;;;;5008397;28;20056;-74
2022/03/05 07:10:05;;;;;;;37.42;16.35;;;;;;;;;;5009292;28;20121;-74
2022/03/05 07:12:31;;;;;;;38.25;15.43;;;;;;;;;;5009394;28;20034;-74
2022/03/05 07:14:58;;;;;;;33.78;14.40;;;;;;;;;;5008312;28;20117;-74
2022/03/05 07:17:23;;;;;;;30.52;13.85;;;;;;;;;;5009443;28;20121;-74
2022/03/05 07:19:50;;;;;;;33.65;13.80;;;;;;;;;;5009527;28;20474;-71
2022/03/05 07:22:15;;;;;;;34.88;14.95;;;;;;;;;;5009346;28;20029;-73
2022/03/05 07:24:40;;;;;;;33.38;14.82;;;;;;;;;;5009911;28;20497;-72
2022/03/05 07:27:06;;;;;;;35.63;15.80;;;;;;;;;;5020085;28;20372;-72
2022/03/05 07:29:31;;;;;;;34.97;15.52;;;;;;;;;;5009677;28;20364;-73
2022/03/05 07:31:57;;;;;;;34.75;15.80;;;;;;;;;;5008336;28;20026;-73
2022/03/05 07:34:22;;;;;;;30.95;15.88;;;;;;;;;;5009266;28;20033;-73
2022/03/05 07:36:47;;;;;;;56.30;31.98;;;;;;;;;;5009040;28;20041;-73
2022/03/05 07:39:12;;;;;;;35.28;18.60;;;;;;;;;;5008139;28;20109;-73
2022/03/05 07:41:38;;;;;;;29.42;15.70;;;;;;;;;;4998315;28;20062;-73
2022/03/05 07:44:05;;;;;;;25.13;12.60;;;;;;;;;;5014600;28;20121;-73
2022/03/05 07:46:32;;;;;;;26.42;12.65;;;;;;;;;;5012345;28;20061;-72
2022/03/05 07:48:57;;;;;;;25.77;13.40;;;;;;;;;;5012394;28;20403;-72
2022/03/05 07:51:23;;;;;;;24.85;13.02;;;;;;;;;;5011232;28;20030;-69
2022/03/05 07:53:48;;;;;;;26.33;13.18;;;;;;;;;;5012205;28;20072;-72
2022/03/05 07:56:13;;;;;;;29.77;13.95;;;;;;;;;;5012205;28;20034;-70
2022/03/05 07:58:39;;;;;;;24.02;13.20;;;;;;;;;;5012580;28;20069;-70
2022/03/05 08:01:04;;;;;;;24.98;12.50;;;;;;;;;;5012389;28;20029;-69
2022/03/05 08:03:29;;;;;;;29.77;13.75;;;;;;;;;;5012308;28;20142;-71
2022/03/05 08:05:55;;;;;;;29.25;13.95;;;;;;;;;;5012519;28;20444;-72
2022/03/05 08:08:20;;;;;;;40.28;14.43;;;;;;;;;;5012669;28;20034;-71
2022/03/05 08:10:46;;;;;;;30.38;14.57;;;;;;;;;;5012659;28;20475;-72
2022/03/05 08:13:12;;;;;;;27.70;14.23;;;;;;;;;;5010460;28;20037;-70
2022/03/05 08:15:37;;;;;;;27.02;14.52;;;;;;;;;;5015098;28;20337;-70
2022/03/05 08:18:03;;;;;;;27.83;13.35;;;;;;;;;;5016497;28;20025;-70
2022/03/05 08:20:31;;;;;;;32.83;15.30;;;;;;;;;;5009924;28;20552;-72
2022/03/05 08:22:57;;;;;;;28.08;14.02;;;;;;;;;;5011294;28;20018;-70
2022/03/05 08:25:23;;;;;;;26.25;13.93;;;;;;;;;;5011157;28;20277;-70
2022/03/05 08:27:49;;;;;;;28.27;14.38;;;;;;;;;;5011490;28;20105;-69
2022/03/05 08:30:15;;;;;;;24.15;13.55;;;;;;;;;;5010417;28;20113;-70
2022/03/05 08:32:41;;;;;;;27.33;13.70;;;;;;;;;;5011285;28;20502;-69
2022/03/05 08:35:08;;;;;;;29.65;14.98;;;;;;;;;;5003087;28;20030;-69
2022/03/05 08:37:34;;;;;;;27.80;14.98;;;;;;;;;;5011865;28;20512;-70
2022/03/05 08:39:59;;;;;;;24.50;14.10;;;;;;;;;;5014785;28;20080;-70
2022/03/05 08:42:25;;;;;;;28.70;15.07;;;;;;;;;;5010999;28;20022;-70
2022/03/05 08:44:50;;;;;;;27.60;15.23;;;;;;;;;;5011010;28;20026;-70
2022/03/05 08:47:16;;;;;;;25.83;14.35;;;;;;;;;;5012377;28;20026;-69
2022/03/05 08:49:41;;;;;;;25.55;14.70;;;;;;;;;;5011735;28;20385;-69
2022/03/05 08:52:07;;;;;;;24.63;14.82;;;;;;;;;;5010936;28;20033;-70
2022/03/05 08:54:32;;;;;;;27.02;15.48;;;;;;;;;;5011635;28;20022;-69
2022/03/05 08:56:57;;;;;;;26.73;15.45;;;;;;;;;;5012058;28;20177;-69
2022/03/05 08:59:23;;;;;;;22.75;14.07;;;;;;;;;;5011303;28;20029;-69
2022/03/05 09:01:48;;;;;;;24.38;15.00;;;;;;;;;;5011785;28;20029;-69
2022/03/05 09:04:13;;;;;;;27.67;15.27;;;;;;;;;;5011939;28;20044;-69
2022/03/05 09:06:39;;;;;;;26.83;15.18;;;;;;;;;;5011653;28;20018;-69
2022/03/05 09:09:06;;;;;;;25.90;14.02;;;;;;;;;;5012150;28;20049;-70
2022/03/05 09:11:31;;;;;;;21.05;13.68;;;;;;;;;;5012000;28;20415;-70
2022/03/05 09:13:57;;;;;;;23.88;15.07;;;;;;;;;;5012039;28;20124;-70
2022/03/05 09:16:22;;;;;;;28.25;17.20;;;;;;;;;;5012186;28;20037;-70
2022/03/05 09:18:48;;;;;;;26.15;16.95;;;;;;;;;;5011789;28;20030;-70
2022/03/05 09:21:13;;;;;;;36.50;23.00;;;;;;;;;;5001387;28;20030;-70
2022/03/05 09:23:39;;;;;;;27.08;16.27;;;;;;;;;;4991733;28;20492;-70
2022/03/05 09:26:04;;;;;;;26.17;15.65;;;;;;;;;;4992490;28;20528;-70
2022/03/05 09:28:30;;;;;;;27.50;16.08;;;;;;;;;;4991849;28;20121;-69
2022/03/05 09:30:56;;;;;;;26.15;14.45;;;;;;;;;;4991919;28;20029;-70
2022/03/05 09:33:22;;;;;;;24.67;15.15;;;;;;;;;;5010307;28;20105;-70
2022/03/05 09:35:49;;;;;;;25.27;15.98;;;;;;;;;;5011114;28;20029;-70
2022/03/05 09:38:14;;;;;;;21.92;13.98;;;;;;;;;;5010709;28;20088;-70
2022/03/05 09:40:39;;;;;;;22.75;14.45;;;;;;;;;;5011125;28;20472;-70
2022/03/05 09:43:05;;;;;;;23.70;15.10;;;;;;;;;;5011098;28;20050;-70
2022/03/05 09:45:30;;;;;;;24.63;13.73;;;;;;;;;;5010929;28;20034;-69
2022/03/05 09:47:56;;;;;;;21.33;14.13;;;;;;;;;;5011103;28;20053;-70
2022/03/05 09:50:24;;;;;;;23.45;13.80;;;;;;;;;;5011116;28;20033;-71
2022/03/05 09:52:50;;;;;;;25.50;13.88;;;;;;;;;;5011020;28;20165;-70
2022/03/05 09:55:15;;;;;;;20.77;13.35;;;;;;;;;;5011183;28;20104;-69
2022/03/05 09:57:41;;;;;;;20.65;13.75;;;;;;;;;;5011220;28;20026;-70
2022/03/05 10:00:07;;;;;;;21.30;13.73;;;;;;;;;;5010667;28;20516;-71
2022/03/05 10:02:32;;;;;;;19.90;13.27;;;;;;;;;;5010588;28;20060;-70
2022/03/05 10:05:24;;;;;;;20.48;14.82;;;;;;;;;;5010087;28;20395;-70
2022/03/05 10:08:14;;;;;;;23.20;13.90;;;;;;;;;;5010018;28;20386;-69
2022/03/05 10:10:52;;;;;;;19.85;12.43;;;;;;;;;;5010270;28;20033;-70
2022/03/05 10:13:22;;;;;;;20.15;13.15;;;;;;;;;;5010842;28;20014;-70
2022/03/05 10:15:48;;;;;;;25.63;13.40;;;;;;;;;;5010403;28;20105;-70
2022/03/05 10:18:14;;;;;;;20.23;14.02;;;;;;;;;;5010458;28;20030;-69
2022/03/05 10:20:44;;;;;;;17.30;11.45;;;;;;;;;;5010782;28;20445;-70
2022/03/05 10:23:11;;;;;;;20.67;12.80;;;;;;;;;;5010747;28;20025;-69
2022/03/05 10:25:39;;;;;;;16.98;11.80;;;;;;;;;;5010485;28;20025;-70
2022/03/05 10:28:10;;;;;;;21.77;13.43;;;;;;;;;;5010860;28;20030;-70
2022/03/05 10:30:45;;;;;;;22.77;15.95;;;;;;;;;;5010908;28;20022;-70
2022/03/05 10:33:39;;;;;;;21.52;15.57;;;;;;;;;;5010510;28;20499;-69
2022/03/05 10:36:07;;;;;;;21.13;15.13;;;;;;;;;;5010402;28;20113;-69
2022/03/05 10:38:46;;;;;;;17.70;12.32;;;;;;;;;;5010309;28;20022;-70
2022/03/05 10:41:13;;;;;;;19.85;12.88;;;;;;;;;;5010393;28;20028;-69
2022/03/05 10:43:39;;;;;;;17.70;12.23;;;;;;;;;;5010260;28;20026;-70
2022/03/05 10:46:04;;;;;;;18.05;12.43;;;;;;;;;;5008810;28;20491;-70
2022/03/05 10:48:31;;;;;;;18.48;12.43;;;;;;;;;;5010101;28;20022;-70
2022/03/05 10:51:04;;;;;;;21.95;12.63;;;;;;;;;;5010222;28;20037;-69
2022/03/05 10:53:47;;;;;;;19.20;12.93;;;;;;;;;;5010179;28;20029;-70
2022/03/05 10:56:29;;;;;;;19.50;13.23;;;;;;;;;;5010411;28;20091;-70
2022/03/05 10:58:58;;;;;;;;;;;;;;;;;;5010710;28;20029;-69
2022/03/05 11:01:23;;;;;;;19.85;11.90;;;;;;;;;;5010211;28;20268;-68
2022/03/05 11:03:51;;;;;;;19.58;13.63;;;;;;;;;;5010357;28;20034;-71
2022/03/05 11:06:18;;;;;;;20.38;11.95;;;;;;;;;;5010048;28;20041;-69
2022/03/05 11:08:44;;;;;;;17.50;12.00;;;;;;;;;;5010050;28;20048;-70
2022/03/05 11:11:10;;;;;;;18.45;11.38;;;;;;;;;;5010091;28;20105;-71
2022/03/05 11:13:35;;;;;;;17.23;11.68;;;;;;;;;;5010152;28;20390;-69
2022/03/05 11:16:02;;;;;;;18.10;11.85;;;;;;;;;;5009906;28;20153;-70
2022/03/05 11:18:28;;;;;;;18.05;11.57;;;;;;;;;;5010135;28;20030;-69
2022/03/05 11:20:54;;;;;;;18.02;12.27;;;;;;;;;;5012925;28;20050;-70
2022/03/05 11:23:20;;;;;;;15.55;10.85;;;;;;;;;;5013717;28;20022;-69
2022/03/05 11:25:46;;;;;;;15.35;10.25;;;;;;;;;;5013937;28;20029;-70
2022/03/05 11:28:18;;;;;;;16.55;10.63;;;;;;;;;;5013804;28;20026;-69
2022/03/05 11:30:45;;;;;;;60.58;30.08;;;;;;;;;;5013775;28;20152;-69
2022/03/05 11:33:33;;;;;;;18.60;10.23;;;;;;;;;;5013817;28;20029;-69
2022/03/05 11:36:06;;;;;;;31.42;17.20;;;;;;;;;;5013755;28;20028;-69
2022/03/05 11:38:32;;;;;;;20.65;11.70;;;;;;;;;;5013272;28;20579;-69
2022/03/05 11:40:58;;;;;;;18.73;11.00;;;;;;;;;;5013749;28;20026;-69
2022/03/05 11:43:24;;;;;;;18.55;10.00;;;;;;;;;;5013873;28;20434;-69
2022/03/05 11:46:02;;;;;;;14.95;9.60;;;;;;;;;;5013668;28;20026;-69
2022/03/05 11:48:38;;;;;;;16.58;9.85;;;;;;;;;;5013091;28;20391;-69
2022/03/05 11:51:08;;;;;;;16.17;9.98;;;;;;;;;;5013336;28;20052;-69
2022/03/05 11:53:34;;;;;;;13.52;8.93;;;;;;;;;;5013329;28;20072;-69
2022/03/05 11:56:20;;;;;;;14.60;7.93;;;;;;;;;;5013330;28;20455;-70
2022/03/05 11:58:46;;;;;;;14.45;9.05;;;;;;;;;;5013709;28;20026;-69
2022/03/05 12:01:34;;;;;;;15.43;8.43;;;;;;;;;;5013393;28;20100;-69
2022/03/05 12:04:15;;;;;;;13.00;8.10;;;;;;;;;;5013148;28;20022;-70
2022/03/05 12:06:45;;;;;;;12.55;7.93;;;;;;;;;;5013096;28;20522;-69
2022/03/05 12:09:35;;;;;;;11.65;7.50;;;;;;;;;;5012944;28;20064;-70
2022/03/05 12:12:02;;;;;;;9.98;6.50;;;;;;;;;;5012290;28;20049;-69
2022/03/05 12:14:55;;;;;;;14.85;7.60;;;;;;;;;;5012934;28;20389;-73
2022/03/05 12:17:22;;;;;;;11.43;7.00;;;;;;;;;;5012886;28;20683;-69
2022/03/05 12:19:48;;;;;;;12.23;6.65;;;;;;;;;;5012592;28;20407;-70
2022/03/05 12:22:14;;;;;;;9.70;6.55;;;;;;;;;;5012668;28;20022;-70
2022/03/05 12:24:39;;;;;;;10.85;6.53;;;;;;;;;;5013058;28;20028;-70
2022/03/05 12:27:09;;;;;;;9.32;6.20;;;;;;;;;;5012584;28;20021;-70
2022/03/05 12:29:35;;;;;;;9.48;6.22;;;;;;;;;;5012367;28;20471;-69
2022/03/05 12:32:00;;;;;;;8.73;6.30;;;;;;;;;;5012262;28;20104;-69
2022/03/05 12:34:28;;;;;;;9.68;6.00;;;;;;;;;;5012460;28;20265;-71
2022/03/05 12:36:54;;;;;;;8.55;5.70;;;;;;;;;;5012575;28;20105;-70
2022/03/05 12:39:24;;;;;;;9.13;6.10;;;;;;;;;;5012382;28;20113;-69
2022/03/05 12:41:49;;;;;;;10.15;5.88;;;;;;;;;;5012604;28;20022;-70
2022/03/05 12:44:14;;;;;;;10.77;5.80;;;;;;;;;;5012291;28;20582;-69
2022/03/05 12:46:41;;;;;;;9.23;5.43;;;;;;;;;;5012236;28;20040;-70
2022/03/05 12:49:07;;;;;;;10.15;5.85;;;;;;;;;;5012027;28;20109;-70
2022/03/05 12:51:32;;;;;;;9.57;5.68;;;;;;;;;;5012524;28;20056;-70
2022/03/05 12:53:59;;;;;;;8.93;5.07;;;;;;;;;;5012351;28;20484;-70
2022/03/05 12:56:26;;;;;;;9.15;5.35;;;;;;;;;;5012136;28;20034;-70
2022/03/05 12:58:55;;;;;;;8.85;5.43;;;;;;;;;;5011743;28;20026;-69
2022/03/05 13:01:21;;;;;;;7.47;5.05;;;;;;;;;;5012143;28;20102;-69
2022/03/05 13:03:46;;;;;;;9.27;5.50;;;;;;;;;;5011793;28;20021;-70
2022/03/05 13:06:11;;;;;;;9.35;4.97;;;;;;;;;;5011924;28;20025;-69
2022/03/05 13:08:38;;;;;;;8.07;4.63;;;;;;;;;;5011492;28;20037;-70
2022/03/05 13:11:04;;;;;;;8.10;5.32;;;;;;;;;;5011797;28;20284;-70
2022/03/05 13:13:31;;;;;;;8.43;5.22;;;;;;;;;;5006859;28;20054;-70
2022/03/05 13:15:56;;;;;;;7.32;4.50;;;;;;;;;;4994667;28;20571;-70
2022/03/05 13:18:22;;;;;;;7.13;4.65;;;;;;;;;;4991758;28;20113;-69
2022/03/05 13:20:47;;;;;;;9.85;5.43;;;;;;;;;;4992117;28;20025;-70
2022/03/05 13:23:18;;;;;;;8.77;4.88;;;;;;;;;;4991772;28;20033;-69
2022/03/05 13:25:45;;;;;;;8.57;5.18;;;;;;;;;;4992188;28;20018;-70
2022/03/05 13:28:18;;;;;;;9.40;5.45;;;;;;;;;;4991652;28;20416;-70
2022/03/05 13:30:53;;;;;;;7.20;4.65;;;;;;;;;;4992285;28;20037;-70
2022/03/05 13:33:43;;;;;;;7.95;4.45;;;;;;;;;;4991830;28;20029;-69
2022/03/05 13:36:35;;;;;;;7.00;4.95;;;;;;;;;;4991542;28;20170;-70
2022/03/05 13:39:15;;;;;;;8.45;4.72;;;;;;;;;;4989427;28;20061;-69
2022/03/05 13:41:42;;;;;;;9.48;5.25;;;;;;;;;;4991402;28;20037;-69
2022/03/05 13:44:18;;;;;;;9.30;5.30;;;;;;;;;;4991128;28;20073;-70
2022/03/05 13:46:45;;;;;;;9.07;5.60;;;;;;;;;;4991551;28;20109;-70
2022/03/05 13:49:14;;;;;;;9.75;6.20;;;;;;;;;;4991692;28;20101;-70
2022/03/05 13:51:46;;;;;;;8.73;5.20;;;;;;;;;;4991836;28;20030;-70
2022/03/05 13:54:11;;;;;;;8.07;4.70;;;;;;;;;;4991554;28;20040;-69
2022/03/05 13:56:44;;;;;;;9.48;5.55;;;;;;;;;;4991471;28;20532;-70
2022/03/05 13:59:11;;;;;;;9.45;5.07;;;;;;;;;;4991415;28;20018;-70
2022/03/05 14:01:42;;;;;;;9.63;5.65;;;;;;;;;;4991530;28;20106;-69
2022/03/05 14:04:18;;;;;;;9.32;5.93;;;;;;;;;;4991560;28;20072;-70
2022/03/05 14:06:48;;;;;;;10.90;6.05;;;;;;;;;;4991463;28;20392;-70
2022/03/05 14:09:21;;;;;;;7.95;5.07;;;;;;;;;;4990886;28;20051;-70
2022/03/05 14:11:46;;;;;;;;;;;;;;;;;;4991935;28;20038;-69
2022/03/05 14:14:11;;;;;;;11.05;5.90;;;;;;;;;;4991132;28;20211;-70
2022/03/05 14:16:38;;;;;;;8.68;5.30;;;;;;;;;;4991098;28;20114;-70
2022/03/05 14:19:05;;;;;;;7.72;4.93;;;;;;;;;;4990854;28;20038;-70
2022/03/05 14:21:31;;;;;;;9.45;5.38;;;;;;;;;;4991039;28;20106;-70